sensor_id;sensor_type;location;lat;lon;timestamp;temperature;humidity
67279;DHT22;54193;53.746;10.058;2023-06-19T00:02:19;17.27;75.88
67279;DHT22;54193;53.746;10.058;2023-06-19T00:05:06;17.15;76.33
67279;DHT22;54193;53.746;10.058;2023-06-19T00:07:51;17.14;76.77
67279;DHT22;54193;53.746;10.058;2023-06-19T00:10:37;17.13;76.44
67279;DHT22;54193;53.746;10.058;2023-06-19T00:13:23;17.21;76.35
67279;DHT22;54193;53.746;10.058;2023-06-19T00:16:08;17.35;75.89
67279;DHT22;54193;53.746;10.058;2023-06-19T00:18:54;17.34;76.14
67279;DHT22;54193;53.746;10.058;2023-06-19T00:21:41;17.25;76.40
67279;DHT22;54193;53.746;10.058;2023-06-19T00:24:28;17.25;76.50
67279;DHT22;54193;53.746;10.058;2023-06-19T00:27:14;17.28;76.51
67279;DHT22;54193;53.746;10.058;2023-06-19T00:29:59;17.28;76.73
67279;DHT22;54193;53.746;10.058;2023-06-19T00:32:47;17.28;76.87
67279;DHT22;54193;53.746;10.058;2023-06-19T00:35:34;17.30;77.18
67279;DHT22;54193;53.746;10.058;2023-06-19T00:38:20;17.30;76.79
67279;DHT22;54193;53.746;10.058;2023-06-19T00:41:06;17.25;77.03
67279;DHT22;54193;53.746;10.058;2023-06-19T00:43:52;17.21;77.32
67279;DHT22;54193;53.746;10.058;2023-06-19T00:46:40;17.36;77.63
67279;DHT22;54193;53.746;10.058;2023-06-19T00:49:26;17.36;76.84
67279;DHT22;54193;53.746;10.058;2023-06-19T00:52:13;17.36;76.92
67279;DHT22;54193;53.746;10.058;2023-06-19T00:54:58;17.39;76.99
67279;DHT22;54193;53.746;10.058;2023-06-19T00:57:45;17.48;77.09
67279;DHT22;54193;53.746;10.058;2023-06-19T01:00:30;17.48;76.81
67279;DHT22;54193;53.746;10.058;2023-06-19T01:03:16;17.46;76.99
67279;DHT22;54193;53.746;10.058;2023-06-19T01:06:02;17.42;78.12
67279;DHT22;54193;53.746;10.058;2023-06-19T01:08:59;17.24;78.38
67279;DHT22;54193;53.746;10.058;2023-06-19T01:11:50;17.13;78.90
67279;DHT22;54193;53.746;10.058;2023-06-19T01:14:59;17.06;79.17
67279;DHT22;54193;53.746;10.058;2023-06-19T01:17:45;17.04;80.32
67279;DHT22;54193;53.746;10.058;2023-06-19T01:20:32;17.02;80.14
67279;DHT22;54193;53.746;10.058;2023-06-19T01:23:18;17.13;80.00
67279;DHT22;54193;53.746;10.058;2023-06-19T01:26:04;17.03;79.30
67279;DHT22;54193;53.746;10.058;2023-06-19T01:28:50;17.03;79.70
67279;DHT22;54193;53.746;10.058;2023-06-19T01:34:29;17.21;79.20
67279;DHT22;54193;53.746;10.058;2023-06-19T01:37:16;17.24;79.12
67279;DHT22;54193;53.746;10.058;2023-06-19T01:40:02;17.21;78.64
67279;DHT22;54193;53.746;10.058;2023-06-19T01:42:51;17.31;78.55
67279;DHT22;54193;53.746;10.058;2023-06-19T01:45:38;17.31;78.44
67279;DHT22;54193;53.746;10.058;2023-06-19T01:48:24;17.39;78.15
67279;DHT22;54193;53.746;10.058;2023-06-19T01:51:10;17.45;77.86
67279;DHT22;54193;53.746;10.058;2023-06-19T01:53:56;17.48;77.67
67279;DHT22;54193;53.746;10.058;2023-06-19T01:56:41;17.59;76.62
67279;DHT22;54193;53.746;10.058;2023-06-19T01:59:27;17.69;75.97
67279;DHT22;54193;53.746;10.058;2023-06-19T02:02:13;17.76;76.03
67279;DHT22;54193;53.746;10.058;2023-06-19T02:04:59;17.76;75.72
67279;DHT22;54193;53.746;10.058;2023-06-19T02:07:44;17.80;75.91
67279;DHT22;54193;53.746;10.058;2023-06-19T02:10:30;17.82;76.10
67279;DHT22;54193;53.746;10.058;2023-06-19T02:13:15;17.90;75.29
67279;DHT22;54193;53.746;10.058;2023-06-19T02:16:01;17.87;75.27
67279;DHT22;54193;53.746;10.058;2023-06-19T02:18:46;17.93;75.02
67279;DHT22;54193;53.746;10.058;2023-06-19T02:21:32;17.96;75.20
67279;DHT22;54193;53.746;10.058;2023-06-19T02:24:18;17.93;75.24
67279;DHT22;54193;53.746;10.058;2023-06-19T02:27:04;17.89;75.43
67279;DHT22;54193;53.746;10.058;2023-06-19T02:29:50;17.96;75.62
67279;DHT22;54193;53.746;10.058;2023-06-19T02:32:36;17.93;75.00
67279;DHT22;54193;53.746;10.058;2023-06-19T02:35:22;17.96;74.89
67279;DHT22;54193;53.746;10.058;2023-06-19T02:38:07;17.99;74.85
67279;DHT22;54193;53.746;10.058;2023-06-19T02:40:53;18.04;74.31
67279;DHT22;54193;53.746;10.058;2023-06-19T02:43:42;17.97;74.53
67279;DHT22;54193;53.746;10.058;2023-06-19T02:46:28;18.04;74.71
67279;DHT22;54193;53.746;10.058;2023-06-19T02:49:13;18.06;74.33
67279;DHT22;54193;53.746;10.058;2023-06-19T02:51:59;18.01;74.58
67279;DHT22;54193;53.746;10.058;2023-06-19T02:54:45;18.04;74.71
67279;DHT22;54193;53.746;10.058;2023-06-19T02:57:30;18.01;74.63
67279;DHT22;54193;53.746;10.058;2023-06-19T03:00:16;17.97;74.95
67279;DHT22;54193;53.746;10.058;2023-06-19T03:03:02;17.96;74.95
67279;DHT22;54193;53.746;10.058;2023-06-19T03:05:48;17.89;75.43
67279;DHT22;54193;53.746;10.058;2023-06-19T03:08:34;17.96;75.37
67279;DHT22;54193;53.746;10.058;2023-06-19T03:11:20;17.97;75.30
67279;DHT22;54193;53.746;10.058;2023-06-19T03:14:06;17.90;75.72
67279;DHT22;54193;53.746;10.058;2023-06-19T03:16:53;17.96;75.41
67279;DHT22;54193;53.746;10.058;2023-06-19T03:19:38;17.91;75.85
67279;DHT22;54193;53.746;10.058;2023-06-19T03:22:24;17.90;75.61
67279;DHT22;54193;53.746;10.058;2023-06-19T03:25:09;17.99;75.13
67279;DHT22;54193;53.746;10.058;2023-06-19T03:27:55;18.00;74.98
67279;DHT22;54193;53.746;10.058;2023-06-19T03:30:41;17.97;75.20
67279;DHT22;54193;53.746;10.058;2023-06-19T03:33:26;18.00;75.38
67279;DHT22;54193;53.746;10.058;2023-06-19T03:36:12;18.01;75.15
67279;DHT22;54193;53.746;10.058;2023-06-19T03:38:58;17.97;75.25
67279;DHT22;54193;53.746;10.058;2023-06-19T03:41:43;18.00;75.29
67279;DHT22;54193;53.746;10.058;2023-06-19T03:44:29;18.06;75.19
67279;DHT22;54193;53.746;10.058;2023-06-19T03:47:15;18.16;74.22
67279;DHT22;54193;53.746;10.058;2023-06-19T03:50:01;18.24;74.15
67279;DHT22;54193;53.746;10.058;2023-06-19T03:52:47;18.21;74.66
67279;DHT22;54193;53.746;10.058;2023-06-19T03:55:33;18.17;74.99
67279;DHT22;54193;53.746;10.058;2023-06-19T03:58:18;18.20;75.06
67279;DHT22;54193;53.746;10.058;2023-06-19T04:01:04;18.09;75.74
67279;DHT22;54193;53.746;10.058;2023-06-19T04:03:50;18.03;75.62
67279;DHT22;54193;53.746;10.058;2023-06-19T04:06:36;18.10;75.63
67279;DHT22;54193;53.746;10.058;2023-06-19T04:09:22;18.13;74.84
67279;DHT22;54193;53.746;10.058;2023-06-19T04:12:08;18.20;75.01
67279;DHT22;54193;53.746;10.058;2023-06-19T04:14:54;18.09;75.49
67279;DHT22;54193;53.746;10.058;2023-06-19T04:17:39;17.89;76.05
67279;DHT22;54193;53.746;10.058;2023-06-19T04:20:25;17.86;76.63
67279;DHT22;54193;53.746;10.058;2023-06-19T04:23:11;17.80;76.65
67279;DHT22;54193;53.746;10.058;2023-06-19T04:25:58;17.76;76.91
67279;DHT22;54193;53.746;10.058;2023-06-19T04:28:44;17.75;76.69
67279;DHT22;54193;53.746;10.058;2023-06-19T04:31:29;17.76;76.67
67279;DHT22;54193;53.746;10.058;2023-06-19T04:34:16;17.85;76.55
67279;DHT22;54193;53.746;10.058;2023-06-19T04:37:02;17.91;76.24
67279;DHT22;54193;53.746;10.058;2023-06-19T04:39:48;18.04;76.28
67279;DHT22;54193;53.746;10.058;2023-06-19T04:42:33;18.04;75.85
67279;DHT22;54193;53.746;10.058;2023-06-19T04:45:19;18.03;75.74
67279;DHT22;54193;53.746;10.058;2023-06-19T04:48:04;18.01;76.08
67279;DHT22;54193;53.746;10.058;2023-06-19T04:50:51;18.01;76.11
67279;DHT22;54193;53.746;10.058;2023-06-19T04:53:37;18.09;76.09
67279;DHT22;54193;53.746;10.058;2023-06-19T04:56:23;18.20;75.47
67279;DHT22;54193;53.746;10.058;2023-06-19T04:59:09;18.18;74.95
67279;DHT22;54193;53.746;10.058;2023-06-19T05:01:54;18.23;75.15
67279;DHT22;54193;53.746;10.058;2023-06-19T05:04:40;18.28;74.87
67279;DHT22;54193;53.746;10.058;2023-06-19T05:07:31;18.26;75.10
67279;DHT22;54193;53.746;10.058;2023-06-19T05:10:17;18.24;74.95
67279;DHT22;54193;53.746;10.058;2023-06-19T05:13:02;18.27;75.64
67279;DHT22;54193;53.746;10.058;2023-06-19T05:15:48;18.26;75.08
67279;DHT22;54193;53.746;10.058;2023-06-19T05:18:34;18.27;75.10
67279;DHT22;54193;53.746;10.058;2023-06-19T05:21:20;18.27;75.54
67279;DHT22;54193;53.746;10.058;2023-06-19T05:24:05;18.27;76.16
67279;DHT22;54193;53.746;10.058;2023-06-19T05:26:51;18.27;75.42
67279;DHT22;54193;53.746;10.058;2023-06-19T05:29:37;18.26;76.15
67279;DHT22;54193;53.746;10.058;2023-06-19T05:32:22;18.13;76.49
67279;DHT22;54193;53.746;10.058;2023-06-19T05:35:08;18.04;77.23
67279;DHT22;54193;53.746;10.058;2023-06-19T05:37:54;18.03;77.52
67279;DHT22;54193;53.746;10.058;2023-06-19T05:40:40;18.06;77.23
67279;DHT22;54193;53.746;10.058;2023-06-19T05:43:26;18.03;77.11
67279;DHT22;54193;53.746;10.058;2023-06-19T05:46:12;18.03;76.99
67279;DHT22;54193;53.746;10.058;2023-06-19T05:48:57;18.03;76.71
67279;DHT22;54193;53.746;10.058;2023-06-19T05:51:43;18.11;77.31
67279;DHT22;54193;53.746;10.058;2023-06-19T05:54:29;18.16;77.52
67279;DHT22;54193;53.746;10.058;2023-06-19T05:57:14;18.14;76.72
67279;DHT22;54193;53.746;10.058;2023-06-19T06:00:06;18.17;76.78
67279;DHT22;54193;53.746;10.058;2023-06-19T06:02:58;18.16;76.59
67279;DHT22;54193;53.746;10.058;2023-06-19T06:05:47;18.21;76.27
67279;DHT22;54193;53.746;10.058;2023-06-19T06:08:35;18.24;76.20
67279;DHT22;54193;53.746;10.058;2023-06-19T06:11:21;18.28;76.60
67279;DHT22;54193;53.746;10.058;2023-06-19T06:14:07;18.30;76.21
67279;DHT22;54193;53.746;10.058;2023-06-19T06:16:53;18.35;75.03
67279;DHT22;54193;53.746;10.058;2023-06-19T06:19:39;18.43;75.09
67279;DHT22;54193;53.746;10.058;2023-06-19T06:22:24;18.48;74.66
67279;DHT22;54193;53.746;10.058;2023-06-19T06:25:10;18.56;74.42
67279;DHT22;54193;53.746;10.058;2023-06-19T06:27:56;18.59;74.86
67279;DHT22;54193;53.746;10.058;2023-06-19T06:30:41;18.64;74.61
67279;DHT22;54193;53.746;10.058;2023-06-19T06:33:27;18.71;75.34
67279;DHT22;54193;53.746;10.058;2023-06-19T06:36:14;18.61;76.03
67279;DHT22;54193;53.746;10.058;2023-06-19T06:39:00;18.47;76.89
67279;DHT22;54193;53.746;10.058;2023-06-19T06:41:45;18.44;77.23
67279;DHT22;54193;53.746;10.058;2023-06-19T06:44:31;18.31;78.16
67279;DHT22;54193;53.746;10.058;2023-06-19T06:47:17;18.24;78.33
67279;DHT22;54193;53.746;10.058;2023-06-19T06:50:03;18.26;79.53
67279;DHT22;54193;53.746;10.058;2023-06-19T06:52:48;18.28;79.29
67279;DHT22;54193;53.746;10.058;2023-06-19T06:55:34;18.31;79.23
67279;DHT22;54193;53.746;10.058;2023-06-19T06:58:20;18.33;79.65
67279;DHT22;54193;53.746;10.058;2023-06-19T07:01:05;18.30;80.12
67279;DHT22;54193;53.746;10.058;2023-06-19T07:03:51;18.31;80.42
67279;DHT22;54193;53.746;10.058;2023-06-19T07:06:36;18.31;80.57
67279;DHT22;54193;53.746;10.058;2023-06-19T07:09:22;18.34;80.67
67279;DHT22;54193;53.746;10.058;2023-06-19T07:12:08;18.43;79.86
67279;DHT22;54193;53.746;10.058;2023-06-19T07:14:53;18.55;79.97
67279;DHT22;54193;53.746;10.058;2023-06-19T07:17:39;18.56;79.59
67279;DHT22;54193;53.746;10.058;2023-06-19T07:20:25;18.68;79.17
67279;DHT22;54193;53.746;10.058;2023-06-19T07:23:11;18.66;79.51
67279;DHT22;54193;53.746;10.058;2023-06-19T07:25:56;18.61;79.26
67279;DHT22;54193;53.746;10.058;2023-06-19T07:28:43;18.68;79.49
67279;DHT22;54193;53.746;10.058;2023-06-19T07:31:28;18.76;79.99
67279;DHT22;54193;53.746;10.058;2023-06-19T07:34:14;18.81;79.06
67279;DHT22;54193;53.746;10.058;2023-06-19T07:36:59;18.85;79.26
67279;DHT22;54193;53.746;10.058;2023-06-19T07:39:46;18.81;80.16
67279;DHT22;54193;53.746;10.058;2023-06-19T07:42:32;18.82;80.71
67279;DHT22;54193;53.746;10.058;2023-06-19T07:45:17;18.83;80.19
67279;DHT22;54193;53.746;10.058;2023-06-19T07:48:03;18.91;80.11
67279;DHT22;54193;53.746;10.058;2023-06-19T07:50:49;18.99;79.55
67279;DHT22;54193;53.746;10.058;2023-06-19T07:53:34;19.14;78.90
67279;DHT22;54193;53.746;10.058;2023-06-19T07:56:20;19.26;77.90
67279;DHT22;54193;53.746;10.058;2023-06-19T07:59:06;19.28;77.35
67279;DHT22;54193;53.746;10.058;2023-06-19T08:01:51;19.38;77.58
67279;DHT22;54193;53.746;10.058;2023-06-19T08:04:37;19.46;77.65
67279;DHT22;54193;53.746;10.058;2023-06-19T08:07:23;19.55;77.17
67279;DHT22;54193;53.746;10.058;2023-06-19T08:10:09;19.64;75.94
67279;DHT22;54193;53.746;10.058;2023-06-19T08:12:54;19.83;75.92
67279;DHT22;54193;53.746;10.058;2023-06-19T08:15:40;20.02;74.30
67279;DHT22;54193;53.746;10.058;2023-06-19T08:18:25;20.30;74.67
67279;DHT22;54193;53.746;10.058;2023-06-19T08:21:12;20.60;73.83
67279;DHT22;54193;53.746;10.058;2023-06-19T08:23:57;20.77;72.21
67279;DHT22;54193;53.746;10.058;2023-06-19T08:26:43;21.19;71.96
67279;DHT22;54193;53.746;10.058;2023-06-19T08:29:30;21.82;70.68
67279;DHT22;54193;53.746;10.058;2023-06-19T08:32:16;22.77;69.45
67279;DHT22;54193;53.746;10.058;2023-06-19T08:35:02;23.53;66.42
67279;DHT22;54193;53.746;10.058;2023-06-19T08:37:48;23.66;64.93
67279;DHT22;54193;53.746;10.058;2023-06-19T08:40:34;23.73;61.48
67279;DHT22;54193;53.746;10.058;2023-06-19T08:43:19;23.78;62.99
67279;DHT22;54193;53.746;10.058;2023-06-19T08:46:16;24.15;62.17
67279;DHT22;54193;53.746;10.058;2023-06-19T08:49:03;24.12;61.17
67279;DHT22;54193;53.746;10.058;2023-06-19T08:51:51;24.11;60.13
67279;DHT22;54193;53.746;10.058;2023-06-19T08:54:37;24.48;60.66
67279;DHT22;54193;53.746;10.058;2023-06-19T08:57:33;25.21;58.76
67279;DHT22;54193;53.746;10.058;2023-06-19T09:00:24;25.21;59.11
67279;DHT22;54193;53.746;10.058;2023-06-19T09:03:10;25.11;57.31
67279;DHT22;54193;53.746;10.058;2023-06-19T09:05:56;25.63;59.24
67279;DHT22;54193;53.746;10.058;2023-06-19T09:08:41;25.55;55.90
67279;DHT22;54193;53.746;10.058;2023-06-19T09:11:27;24.86;58.01
67279;DHT22;54193;53.746;10.058;2023-06-19T09:14:13;24.52;57.93
67279;DHT22;54193;53.746;10.058;2023-06-19T09:16:58;24.38;59.04
67279;DHT22;54193;53.746;10.058;2023-06-19T09:19:48;24.21;60.64
67279;DHT22;54193;53.746;10.058;2023-06-19T09:22:34;24.33;59.11
67279;DHT22;54193;53.746;10.058;2023-06-19T09:25:20;24.24;58.76
67279;DHT22;54193;53.746;10.058;2023-06-19T09:28:26;24.33;58.72
67279;DHT22;54193;53.746;10.058;2023-06-19T09:31:12;24.63;58.62
67279;DHT22;54193;53.746;10.058;2023-06-19T09:33:58;25.00;58.16
67279;DHT22;54193;53.746;10.058;2023-06-19T09:36:45;24.93;57.27
67279;DHT22;54193;53.746;10.058;2023-06-19T09:39:31;24.70;57.79
67279;DHT22;54193;53.746;10.058;2023-06-19T09:42:17;24.84;59.78
67279;DHT22;54193;53.746;10.058;2023-06-19T09:45:23;25.02;57.25
67279;DHT22;54193;53.746;10.058;2023-06-19T09:48:13;25.00;57.17
67279;DHT22;54193;53.746;10.058;2023-06-19T09:51:19;25.37;56.97
67279;DHT22;54193;53.746;10.058;2023-06-19T09:54:05;25.73;56.28
67279;DHT22;54193;53.746;10.058;2023-06-19T09:56:52;26.03;54.53
67279;DHT22;54193;53.746;10.058;2023-06-19T09:59:43;26.14;54.88
67279;DHT22;54193;53.746;10.058;2023-06-19T10:02:29;25.86;55.81
67279;DHT22;54193;53.746;10.058;2023-06-19T10:05:15;25.42;55.83
67279;DHT22;54193;53.746;10.058;2023-06-19T10:08:01;26.04;57.14
67279;DHT22;54193;53.746;10.058;2023-06-19T10:10:48;26.08;54.87
67279;DHT22;54193;53.746;10.058;2023-06-19T10:13:37;26.59;56.37
67279;DHT22;54193;53.746;10.058;2023-06-19T10:16:26;25.70;55.26
67279;DHT22;54193;53.746;10.058;2023-06-19T10:19:16;26.04;56.38
67279;DHT22;54193;53.746;10.058;2023-06-19T10:22:03;26.78;59.89
67279;DHT22;54193;53.746;10.058;2023-06-19T10:24:50;27.57;53.28
67279;DHT22;54193;53.746;10.058;2023-06-19T10:27:37;27.38;52.19
67279;DHT22;54193;53.746;10.058;2023-06-19T10:30:23;27.29;53.07
67279;DHT22;54193;53.746;10.058;2023-06-19T10:33:09;26.76;53.35
67279;DHT22;54193;53.746;10.058;2023-06-19T10:35:55;27.16;52.26
67279;DHT22;54193;53.746;10.058;2023-06-19T10:38:40;27.20;53.91
67279;DHT22;54193;53.746;10.058;2023-06-19T10:41:26;26.93;52.46
67279;DHT22;54193;53.746;10.058;2023-06-19T10:44:11;26.92;53.20
67279;DHT22;54193;53.746;10.058;2023-06-19T10:47:01;26.41;53.90
67279;DHT22;54193;53.746;10.058;2023-06-19T10:49:47;26.65;55.18
67279;DHT22;54193;53.746;10.058;2023-06-19T10:52:32;26.91;54.77
67279;DHT22;54193;53.746;10.058;2023-06-19T10:55:18;27.27;52.49
67279;DHT22;54193;53.746;10.058;2023-06-19T10:58:03;27.31;50.05
67279;DHT22;54193;53.746;10.058;2023-06-19T11:00:49;27.48;50.19
67279;DHT22;54193;53.746;10.058;2023-06-19T11:03:35;27.67;49.30
67279;DHT22;54193;53.746;10.058;2023-06-19T11:06:21;27.59;51.13
67279;DHT22;54193;53.746;10.058;2023-06-19T11:09:13;28.19;49.10
67279;DHT22;54193;53.746;10.058;2023-06-19T11:11:59;28.05;49.24
67279;DHT22;54193;53.746;10.058;2023-06-19T11:14:45;28.41;49.96
67279;DHT22;54193;53.746;10.058;2023-06-19T11:17:32;28.23;48.90
67279;DHT22;54193;53.746;10.058;2023-06-19T11:20:17;27.75;49.68
67279;DHT22;54193;53.746;10.058;2023-06-19T11:23:04;28.03;51.45
67279;DHT22;54193;53.746;10.058;2023-06-19T11:25:49;28.26;50.03
67279;DHT22;54193;53.746;10.058;2023-06-19T11:28:35;28.39;49.60
67279;DHT22;54193;53.746;10.058;2023-06-19T11:31:25;28.65;48.78
67279;DHT22;54193;53.746;10.058;2023-06-19T11:34:12;28.32;49.37
67279;DHT22;54193;53.746;10.058;2023-06-19T11:36:58;28.22;48.83
67279;DHT22;54193;53.746;10.058;2023-06-19T11:39:45;27.96;50.65
67279;DHT22;54193;53.746;10.058;2023-06-19T11:42:32;28.40;47.71
67279;DHT22;54193;53.746;10.058;2023-06-19T11:45:18;27.95;49.11
67279;DHT22;54193;53.746;10.058;2023-06-19T11:48:05;28.22;49.33
67279;DHT22;54193;53.746;10.058;2023-06-19T11:50:51;28.95;48.35
67279;DHT22;54193;53.746;10.058;2023-06-19T11:53:37;28.95;46.87
67279;DHT22;54193;53.746;10.058;2023-06-19T11:56:23;28.36;47.78
67279;DHT22;54193;53.746;10.058;2023-06-19T11:59:08;28.19;49.60
67279;DHT22;54193;53.746;10.058;2023-06-19T12:01:54;28.32;50.66
67279;DHT22;54193;53.746;10.058;2023-06-19T12:04:42;27.99;49.71
67279;DHT22;54193;53.746;10.058;2023-06-19T12:07:27;27.58;49.62
67279;DHT22;54193;53.746;10.058;2023-06-19T12:10:13;27.86;49.58
67279;DHT22;54193;53.746;10.058;2023-06-19T12:12:59;28.08;48.71
67279;DHT22;54193;53.746;10.058;2023-06-19T12:15:44;28.05;48.90
67279;DHT22;54193;53.746;10.058;2023-06-19T12:18:30;27.86;49.30
67279;DHT22;54193;53.746;10.058;2023-06-19T12:21:15;27.44;50.13
67279;DHT22;54193;53.746;10.058;2023-06-19T12:24:01;27.61;49.34
67279;DHT22;54193;53.746;10.058;2023-06-19T12:26:47;27.58;48.82
67279;DHT22;54193;53.746;10.058;2023-06-19T12:29:32;27.82;47.89
67279;DHT22;54193;53.746;10.058;2023-06-19T12:32:18;28.19;48.62
67279;DHT22;54193;53.746;10.058;2023-06-19T12:35:04;28.14;47.55
67279;DHT22;54193;53.746;10.058;2023-06-19T12:37:50;28.13;48.25
67279;DHT22;54193;53.746;10.058;2023-06-19T12:40:36;27.88;48.08
67279;DHT22;54193;53.746;10.058;2023-06-19T12:43:22;27.86;48.27
67279;DHT22;54193;53.746;10.058;2023-06-19T12:46:07;27.85;48.96
67279;DHT22;54193;53.746;10.058;2023-06-19T12:48:53;27.57;48.58
67279;DHT22;54193;53.746;10.058;2023-06-19T12:51:39;27.55;48.84
67279;DHT22;54193;53.746;10.058;2023-06-19T12:54:25;27.72;50.67
67279;DHT22;54193;53.746;10.058;2023-06-19T12:57:11;28.01;48.96
67279;DHT22;54193;53.746;10.058;2023-06-19T12:59:56;27.81;49.24
67279;DHT22;54193;53.746;10.058;2023-06-19T13:02:42;27.88;49.83
67279;DHT22;54193;53.746;10.058;2023-06-19T13:05:28;28.13;49.80
67279;DHT22;54193;53.746;10.058;2023-06-19T13:08:15;28.02;49.94
67279;DHT22;54193;53.746;10.058;2023-06-19T13:11:01;27.88;50.27
67279;DHT22;54193;53.746;10.058;2023-06-19T13:13:46;27.91;51.31
67279;DHT22;54193;53.746;10.058;2023-06-19T13:16:32;27.96;51.98
67279;DHT22;54193;53.746;10.058;2023-06-19T13:19:18;27.96;51.23
67279;DHT22;54193;53.746;10.058;2023-06-19T13:22:03;27.34;51.55
67279;DHT22;54193;53.746;10.058;2023-06-19T13:24:49;27.53;51.79
67279;DHT22;54193;53.746;10.058;2023-06-19T13:27:35;28.12;50.45
67279;DHT22;54193;53.746;10.058;2023-06-19T13:30:20;28.06;51.14
67279;DHT22;54193;53.746;10.058;2023-06-19T13:33:06;27.80;50.94
67279;DHT22;54193;53.746;10.058;2023-06-19T13:35:52;27.20;53.51
67279;DHT22;54193;53.746;10.058;2023-06-19T13:38:37;26.55;55.38
67279;DHT22;54193;53.746;10.058;2023-06-19T13:41:23;26.55;56.21
67279;DHT22;54193;53.746;10.058;2023-06-19T13:44:09;26.28;57.59
67279;DHT22;54193;53.746;10.058;2023-06-19T13:46:54;25.65;60.64
67279;DHT22;54193;53.746;10.058;2023-06-19T13:49:40;25.79;61.35
67279;DHT22;54193;53.746;10.058;2023-06-19T13:52:25;25.58;63.63
67279;DHT22;54193;53.746;10.058;2023-06-19T13:55:12;25.30;64.39
67279;DHT22;54193;53.746;10.058;2023-06-19T13:57:59;25.14;64.39
67279;DHT22;54193;53.746;10.058;2023-06-19T14:00:45;25.44;64.20
67279;DHT22;54193;53.746;10.058;2023-06-19T14:03:31;26.04;62.73
67279;DHT22;54193;53.746;10.058;2023-06-19T14:06:17;26.21;61.93
67279;DHT22;54193;53.746;10.058;2023-06-19T14:09:02;25.92;62.06
67279;DHT22;54193;53.746;10.058;2023-06-19T14:11:48;26.07;60.55
67279;DHT22;54193;53.746;10.058;2023-06-19T14:14:34;26.18;60.96
67279;DHT22;54193;53.746;10.058;2023-06-19T14:17:20;26.14;60.71
67279;DHT22;54193;53.746;10.058;2023-06-19T14:20:07;26.04;60.95
67279;DHT22;54193;53.746;10.058;2023-06-19T14:22:53;25.61;61.96
67279;DHT22;54193;53.746;10.058;2023-06-19T14:25:38;25.99;62.35
67279;DHT22;54193;53.746;10.058;2023-06-19T14:28:24;25.83;63.83
67279;DHT22;54193;53.746;10.058;2023-06-19T14:31:09;25.24;64.99
67279;DHT22;54193;53.746;10.058;2023-06-19T14:33:55;25.66;64.46
67279;DHT22;54193;53.746;10.058;2023-06-19T14:36:41;26.27;62.77
67279;DHT22;54193;53.746;10.058;2023-06-19T14:39:26;26.23;62.41
67279;DHT22;54193;53.746;10.058;2023-06-19T14:42:12;25.92;63.34
67279;DHT22;54193;53.746;10.058;2023-06-19T14:44:57;25.65;63.38
67279;DHT22;54193;53.746;10.058;2023-06-19T14:47:43;25.62;63.76
67279;DHT22;54193;53.746;10.058;2023-06-19T14:50:29;26.23;61.88
67279;DHT22;54193;53.746;10.058;2023-06-19T14:53:14;26.45;61.17
67279;DHT22;54193;53.746;10.058;2023-06-19T14:56:00;26.45;61.13
67279;DHT22;54193;53.746;10.058;2023-06-19T14:58:46;26.06;61.66
67279;DHT22;54193;53.746;10.058;2023-06-19T15:01:32;26.08;62.28
67279;DHT22;54193;53.746;10.058;2023-06-19T15:04:17;25.42;63.87
67279;DHT22;54193;53.746;10.058;2023-06-19T15:07:03;25.44;64.42
67279;DHT22;54193;53.746;10.058;2023-06-19T15:09:49;25.44;64.26
67279;DHT22;54193;53.746;10.058;2023-06-19T15:12:34;25.13;65.22
67279;DHT22;54193;53.746;10.058;2023-06-19T15:15:20;25.11;64.37
67279;DHT22;54193;53.746;10.058;2023-06-19T15:18:06;25.20;64.36
67279;DHT22;54193;53.746;10.058;2023-06-19T15:20:52;25.10;64.92
67279;DHT22;54193;53.746;10.058;2023-06-19T15:23:38;25.02;65.27
67279;DHT22;54193;53.746;10.058;2023-06-19T15:26:23;25.57;63.81
67279;DHT22;54193;53.746;10.058;2023-06-19T15:29:10;26.04;62.30
67279;DHT22;54193;53.746;10.058;2023-06-19T15:31:55;26.24;62.63
67279;DHT22;54193;53.746;10.058;2023-06-19T15:34:41;25.61;63.34
67279;DHT22;54193;53.746;10.058;2023-06-19T15:37:26;25.33;64.31
67279;DHT22;54193;53.746;10.058;2023-06-19T15:40:12;25.35;64.19
67279;DHT22;54193;53.746;10.058;2023-06-19T15:42:58;25.73;63.08
67279;DHT22;54193;53.746;10.058;2023-06-19T15:45:44;25.37;63.49
67279;DHT22;54193;53.746;10.058;2023-06-19T15:48:29;25.14;64.34
67279;DHT22;54193;53.746;10.058;2023-06-19T15:51:15;25.41;63.58
67279;DHT22;54193;53.746;10.058;2023-06-19T15:54:01;25.58;63.06
67279;DHT22;54193;53.746;10.058;2023-06-19T15:56:48;26.01;61.84
67279;DHT22;54193;53.746;10.058;2023-06-19T15:59:34;25.53;63.01
67279;DHT22;54193;53.746;10.058;2023-06-19T16:02:19;25.49;62.41
67279;DHT22;54193;53.746;10.058;2023-06-19T16:05:05;25.27;63.29
67279;DHT22;54193;53.746;10.058;2023-06-19T16:07:52;25.13;63.34
67279;DHT22;54193;53.746;10.058;2023-06-19T16:10:37;25.28;63.54
67279;DHT22;54193;53.746;10.058;2023-06-19T16:13:23;25.11;63.15
67279;DHT22;54193;53.746;10.058;2023-06-19T16:16:09;25.18;63.45
67279;DHT22;54193;53.746;10.058;2023-06-19T16:18:55;25.14;63.08
67279;DHT22;54193;53.746;10.058;2023-06-19T16:21:41;25.00;63.21
67279;DHT22;54193;53.746;10.058;2023-06-19T16:24:27;24.87;63.54
67279;DHT22;54193;53.746;10.058;2023-06-19T16:27:12;25.03;63.11
67279;DHT22;54193;53.746;10.058;2023-06-19T16:29:58;25.15;63.24
67279;DHT22;54193;53.746;10.058;2023-06-19T16:32:43;25.00;62.65
67279;DHT22;54193;53.746;10.058;2023-06-19T16:35:29;24.98;63.22
67279;DHT22;54193;53.746;10.058;2023-06-19T16:38:15;25.18;63.05
67279;DHT22;54193;53.746;10.058;2023-06-19T16:41:01;25.02;62.66
67279;DHT22;54193;53.746;10.058;2023-06-19T16:43:47;25.08;62.84
67279;DHT22;54193;53.746;10.058;2023-06-19T16:46:33;24.98;62.74
67279;DHT22;54193;53.746;10.058;2023-06-19T16:49:19;25.02;62.60
67279;DHT22;54193;53.746;10.058;2023-06-19T16:52:07;24.93;63.43
67279;DHT22;54193;53.746;10.058;2023-06-19T16:54:53;25.07;62.45
67279;DHT22;54193;53.746;10.058;2023-06-19T16:57:39;25.34;63.40
67279;DHT22;54193;53.746;10.058;2023-06-19T17:00:25;25.48;61.67
67279;DHT22;54193;53.746;10.058;2023-06-19T17:03:11;25.73;60.85
67279;DHT22;54193;53.746;10.058;2023-06-19T17:05:58;25.45;61.61
67279;DHT22;54193;53.746;10.058;2023-06-19T17:08:43;25.11;62.26
67279;DHT22;54193;53.746;10.058;2023-06-19T17:11:29;25.21;62.34
67279;DHT22;54193;53.746;10.058;2023-06-19T17:14:15;25.00;62.76
67279;DHT22;54193;53.746;10.058;2023-06-19T17:17:00;25.00;62.56